Time;durP1;ratioP1;P1;durP2;ratioP2;P2;SDS_P1;SDS_P2;PMS_P1;PMS_P2;Temp;Humidity;BMP_temperature;BMP_pressure;BME280_temperature;BME280_humidity;BME280_pressure;Samples;Min_cycle;Max_cycle;Signal;HPM_P1;HPM_P2
2021/11/20 00:01:20;;;;;;;5.72;3.00;;;;;;;11.80;64.73;100763.00;4939503;28;98126;-78
2021/11/20 00:03:47;;;;;;;6.20;3.15;;;;;;;11.76;65.15;100762.25;4923225;28;100369;-78
2021/11/20 00:06:19;;;;;;;5.40;2.80;;;;;;;11.81;65.03;100756.84;4939823;28;97160;-78
2021/11/20 00:08:45;;;;;;;5.22;2.83;;;;;;;11.79;65.53;100743.75;4939641;28;96660;-77
2021/11/20 00:11:14;;;;;;;6.25;3.67;;;;;;;11.82;65.12;100747.19;4922365;28;100339;-78
2021/11/20 00:13:41;;;;;;;5.68;3.10;;;;;;;11.78;65.26;100760.44;4906624;28;100914;-78
2021/11/20 00:16:09;;;;;;;6.40;3.20;;;;;;;11.83;65.09;100755.03;4955573;28;96541;-77
2021/11/20 00:18:36;;;;;;;7.63;3.35;;;;;;;11.78;64.88;100755.19;4939529;28;96851;-78
2021/11/20 00:21:06;;;;;;;10.00;3.53;;;;;;;11.82;65.56;100760.34;4938546;28;100039;-78
2021/11/20 00:23:36;;;;;;;7.18;3.33;;;;;;;11.79;65.40;100743.75;4922540;28;101440;-77
2021/11/20 00:26:04;;;;;;;7.95;3.22;;;;;;;11.82;65.23;100760.34;4955687;28;96649;-78
2021/11/20 00:28:41;;;;;;;7.20;3.30;;;;;;;11.80;65.63;100760.38;4907478;28;96941;-78
2021/11/20 00:31:14;;;;;;;10.55;3.80;;;;;;;11.82;65.53;100762.97;4939063;28;97970;-79
2021/11/20 00:33:41;;;;;;;7.15;3.20;;;;;;;11.78;65.59;100757.81;4922642;28;97827;-77
2021/11/20 00:36:09;;;;;;;7.03;3.33;;;;;;;11.79;65.55;100767.41;4955177;28;96394;-78
2021/11/20 00:38:35;;;;;;;5.53;3.25;;;;;;;11.78;65.45;100763.06;4939039;28;96691;-78
2021/11/20 00:41:13;;;;;;;7.72;3.42;;;;;;;11.83;65.44;100768.16;4922278;28;100954;-78
2021/11/20 00:43:40;;;;;;;7.20;3.20;;;;;;;11.85;65.97;100771.66;4922321;28;100450;-77
2021/11/20 00:46:06;;;;;;;7.95;3.83;;;;;;;11.89;65.81;100772.41;4938962;28;96477;-78
2021/11/20 00:48:32;;;;;;;7.22;3.35;;;;;;;11.85;65.85;100779.53;4923057;28;96783;-77
2021/11/20 00:51:05;;;;;;;6.95;3.45;;;;;;;11.88;65.69;100775.97;4954936;28;97215;-78
2021/11/20 00:53:31;;;;;;;6.20;3.22;;;;;;;11.89;65.65;100778.53;4922552;28;99814;-77
2021/11/20 00:55:58;;;;;;;8.23;3.20;;;;;;;11.86;66.09;100773.38;4939130;28;96465;-77
2021/11/20 00:58:25;;;;;;;7.00;3.60;;;;;;;11.89;65.77;100772.41;4954701;28;96871;-78
2021/11/20 01:00:54;;;;;;;5.10;3.30;;;;;;;11.88;65.71;100766.28;4921005;28;99837;-78
2021/11/20 01:03:22;;;;;;;10.00;3.60;;;;;;;11.90;65.86;100779.41;4938278;28;100339;-78
2021/11/20 01:05:48;;;;;;;7.35;3.60;;;;;;;11.86;65.79;100781.25;4938810;28;96474;-78
2021/11/20 01:08:15;;;;;;;10.23;4.05;;;;;;;11.83;65.93;100762.91;4922439;28;96842;-78
2021/11/20 01:10:45;;;;;;;7.88;3.42;;;;;;;11.85;66.16;100758.50;4954034;28;98022;-77
2021/11/20 01:13:12;;;;;;;5.85;3.38;;;;;;;11.85;66.34;100749.72;4905912;28;100529;-78
2021/11/20 01:16:00;;;;;;;5.40;3.75;;;;;;;11.83;66.40;100738.38;4906198;28;96624;-77
2021/11/20 01:18:29;;;;;;;7.18;3.47;;;;;;;11.81;66.43;100751.59;4923042;28;96918;-78
2021/11/20 01:21:06;;;;;;;9.00;4.00;;;;;;;11.82;66.62;100761.19;4923286;28;100588;-78
2021/11/20 01:23:32;;;;;;;5.38;3.28;;;;;;;11.87;66.32;100764.59;4921637;28;100385;-78
2021/11/20 01:26:05;;;;;;;10.27;4.63;;;;;;;11.90;66.57;100763.63;4922800;28;96469;-78
2021/11/20 01:28:42;;;;;;;12.10;3.78;;;;;;;11.89;66.23;100751.38;4923140;28;96831;-78
2021/11/20 01:31:12;;;;;;;10.37;3.90;;;;;;;11.89;66.41;100759.25;4953877;28;99753;-78
2021/11/20 01:33:42;;;;;;;5.60;3.95;;;;;;;11.89;66.19;100746.09;4937741;28;98821;-78
2021/11/20 01:36:11;;;;;;;7.50;3.40;;;;;;;11.90;66.81;100758.38;4922550;28;96622;-77
2021/11/20 01:38:38;;;;;;;6.80;3.85;;;;;;;11.88;66.95;100747.88;4906439;28;96881;-78
2021/11/20 01:41:19;;;;;;;5.57;3.85;;;;;;;11.88;66.96;100745.25;4937748;28;100588;-78
2021/11/20 01:43:56;;;;;;;7.20;4.00;;;;;;;11.89;67.06;100739.06;4937810;28;98807;-78
2021/11/20 01:46:29;;;;;;;8.13;3.75;;;;;;;11.89;66.86;100730.31;4922127;28;96576;-77
2021/11/20 01:49:07;;;;;;;5.90;3.70;;;;;;;11.88;66.97;100716.31;4906002;28;96854;-78
2021/11/20 01:51:53;;;;;;;4.57;3.50;;;;;;;11.90;67.09;100718.91;4953344;28;99915;-78
2021/11/20 01:54:30;;;;;;;5.68;3.50;;;;;;;11.87;66.76;100725.13;4953791;28;100085;-78
2021/11/20 01:57:41;;;;;;;5.68;3.10;;;;;;;11.87;67.16;100735.66;4937693;28;96695;-79
2021/11/20 02:00:20;;;;;;;5.07;3.63;;;;;;;11.86;67.31;100731.28;4906411;28;96831;-77
2021/11/20 02:03:01;;;;;;;5.82;3.78;;;;;;;11.91;67.12;100729.38;4938488;28;97507;-78
2021/11/20 02:05:45;;;;;;;8.65;3.92;;;;;;;11.95;67.12;100730.97;4937339;28;100187;-79
2021/11/20 02:08:46;;;;;;;7.93;4.40;;;;;;;11.87;67.27;100724.25;4938480;28;96829;-78
2021/11/20 02:11:22;;;;;;;7.68;3.75;;;;;;;11.91;67.30;100732.00;4954277;28;96865;-78
2021/11/20 02:13:49;;;;;;;7.00;3.95;;;;;;;11.90;67.52;100726.81;4921118;28;96877;-79
2021/11/20 02:16:20;;;;;;;7.50;3.97;;;;;;;11.98;67.25;100740.53;4953338;28;100398;-78
2021/11/20 02:18:53;;;;;;;6.65;3.78;;;;;;;11.92;66.92;100735.47;4905171;28;96413;-79
2021/11/20 02:21:27;;;;;;;7.65;4.25;;;;;;;11.97;67.02;100726.53;4920694;28;96890;-78
2021/11/20 02:23:56;;;;;;;10.32;4.45;;;;;;;11.95;67.12;100738.00;4921299;28;100389;-79
2021/11/20 02:26:25;;;;;;;11.25;4.70;;;;;;;11.95;67.58;100738.00;4936938;28;100337;-79
2021/11/20 02:28:57;;;;;;;7.55;3.83;;;;;;;11.98;67.41;100748.44;4937340;28;96576;-78
2021/11/20 02:31:45;;;;;;;6.40;4.05;;;;;;;11.98;67.73;100744.06;4909588;28;96832;-78
2021/11/20 02:34:14;;;;;;;7.35;4.03;;;;;;;11.95;67.44;100748.53;4937118;28;97677;-77
2021/11/20 02:36:42;;;;;;;8.55;4.70;;;;;;;11.98;67.48;100751.94;4921433;28;101366;-79
2021/11/20 02:39:13;;;;;;;7.10;3.90;;;;;;;11.99;67.00;100747.53;4937316;28;96577;-78
2021/11/20 02:41:41;;;;;;;8.50;4.88;;;;;;;11.97;67.42;100742.31;4905438;28;96885;-79
2021/11/20 02:44:09;;;;;;;9.18;4.40;;;;;;;11.98;67.40;100740.53;4919856;28;100730;-78
2021/11/20 02:46:38;;;;;;;9.85;4.53;;;;;;;12.02;67.95;100741.31;4936670;28;98584;-78
2021/11/20 02:49:06;;;;;;;9.35;4.75;;;;;;;12.03;67.13;100746.50;4953315;28;96483;-78
2021/11/20 02:51:37;;;;;;;10.85;5.28;;;;;;;12.03;67.07;100753.56;4953055;28;96949;-79
2021/11/20 02:54:12;;;;;;;8.88;4.90;;;;;;;11.98;67.18;100749.31;4952926;28;97675;-78
2021/11/20 02:56:42;;;;;;;11.07;5.47;;;;;;;11.93;67.36;100738.06;4936629;28;100554;-78
2021/11/20 02:59:10;;;;;;;8.15;5.40;;;;;;;11.98;67.39;100738.78;4920820;28;96682;-78
2021/11/20 03:01:42;;;;;;;10.00;6.50;;;;;;;11.97;67.65;100744.94;4953021;28;96784;-78
2021/11/20 03:04:10;;;;;;;11.05;5.05;;;;;;;11.98;67.29;100733.53;4952692;28;100594;-79
2021/11/20 03:06:37;;;;;;;7.40;5.05;;;;;;;11.95;67.52;100749.38;4920276;28;100003;-79
2021/11/20 03:09:05;;;;;;;10.20;4.65;;;;;;;11.98;67.35;100751.94;4936667;28;96662;-78
2021/11/20 03:11:32;;;;;;;9.57;5.22;;;;;;;11.98;67.56;100749.31;4953061;28;96912;-78
2021/11/20 03:14:05;;;;;;;10.20;5.15;;;;;;;12.01;67.40;100758.84;4952219;28;98977;-78
2021/11/20 03:16:54;;;;;;;8.27;5.32;;;;;;;11.99;67.55;100756.28;4923374;28;98362;-79
2021/11/20 03:19:21;;;;;;;12.50;5.85;;;;;;;11.95;67.50;100761.69;4920811;28;96610;-78
2021/11/20 03:21:50;;;;;;;9.32;5.85;;;;;;;11.97;67.52;100760.72;4936633;28;96813;-78
2021/11/20 03:24:19;;;;;;;9.95;5.03;;;;;;;11.96;67.45;100755.53;4920251;28;100889;-78
2021/11/20 03:26:45;;;;;;;9.65;5.47;;;;;;;11.95;67.70;100759.91;4920408;28;100401;-78
2021/11/20 03:29:12;;;;;;;12.43;5.47;;;;;;;11.94;67.80;100771.34;4952944;28;96776;-78
2021/11/20 03:31:39;;;;;;;11.85;6.70;;;;;;;11.97;67.56;100776.50;4936756;28;96903;-79
2021/11/20 03:34:06;;;;;;;9.07;5.45;;;;;;;12.00;67.54;100757.13;4922753;28;100890;-79
2021/11/20 03:36:34;;;;;;;9.52;5.25;;;;;;;11.98;67.88;100773.00;4923319;28;99644;-78
2021/11/20 03:39:07;;;;;;;9.38;5.85;;;;;;;11.99;67.41;100764.19;4909029;28;96496;-77
2021/11/20 03:41:33;;;;;;;10.35;5.82;;;;;;;11.94;67.73;100771.34;4956271;28;96878;-78
2021/11/20 03:43:58;;;;;;;8.80;5.70;;;;;;;11.96;68.21;100768.69;4939522;28;98038;-78
2021/11/20 03:46:24;;;;;;;8.48;5.70;;;;;;;12.00;67.63;100778.19;4939521;28;100581;-79
2021/11/20 03:48:51;;;;;;;8.82;5.63;;;;;;;12.02;67.71;100772.88;4939731;28;96618;-79
2021/11/20 03:51:16;;;;;;;10.32;5.30;;;;;;;11.96;67.95;100763.44;4956788;28;96951;-79
2021/11/20 03:53:43;;;;;;;7.28;5.13;;;;;;;11.98;67.40;100780.88;4939274;28;100496;-79
2021/11/20 03:56:08;;;;;;;14.02;5.80;;;;;;;12.00;67.96;100771.16;4939184;28;100595;-78
2021/11/20 03:58:37;;;;;;;8.85;5.38;;;;;;;11.99;68.21;100779.97;4938779;28;96552;-78
2021/11/20 04:01:09;;;;;;;6.35;4.88;;;;;;;11.97;68.00;100792.28;4955728;28;96837;-78
2021/11/20 04:03:37;;;;;;;7.85;5.40;;;;;;;11.99;67.96;100790.50;4939081;28;100015;-78
2021/11/20 04:06:03;;;;;;;7.72;5.80;;;;;;;11.98;68.31;100788.78;4938908;28;100172;-79
2021/11/20 04:08:30;;;;;;;9.60;5.25;;;;;;;12.01;67.79;100779.91;4939601;28;96590;-78
2021/11/20 04:11:06;;;;;;;10.38;5.88;;;;;;;12.00;68.29;100783.44;4939506;28;96662;-78
2021/11/20 04:13:34;;;;;;;8.43;6.45;;;;;;;11.97;67.81;100783.56;4922792;28;100868;-78
2021/11/20 04:16:00;;;;;;;9.38;5.60;;;;;;;12.00;68.12;100780.81;4939274;28;99906;-78
2021/11/20 04:18:25;;;;;;;11.68;5.50;;;;;;;12.00;67.93;100788.72;4955601;28;96426;-79
2021/11/20 04:20:51;;;;;;;10.25;6.10;;;;;;;12.00;68.16;100776.41;4939655;28;97003;-78
2021/11/20 04:23:17;;;;;;;9.00;5.15;;;;;;;11.96;67.96;100780.06;4954696;28;97958;-78
2021/11/20 04:25:44;;;;;;;10.23;5.45;;;;;;;12.03;68.03;100771.97;4938769;28;99818;-79
2021/11/20 04:28:10;;;;;;;12.57;5.60;;;;;;;12.01;68.13;100772.00;4922994;28;96703;-78
2021/11/20 04:30:40;;;;;;;9.18;5.25;;;;;;;12.00;67.93;100776.41;4955345;28;96860;-78
2021/11/20 04:33:06;;;;;;;11.27;6.03;;;;;;;11.94;68.14;100781.03;4954760;28;100426;-79
2021/11/20 04:35:32;;;;;;;8.00;5.47;;;;;;;11.95;68.47;100774.84;4954845;28;99806;-77
2021/11/20 04:37:57;;;;;;;10.80;5.40;;;;;;;11.98;68.17;100773.00;4922818;28;96452;-79
2021/11/20 04:40:24;;;;;;;13.63;6.03;;;;;;;11.99;68.41;100773.84;4939635;28;96972;-78
2021/11/20 04:42:51;;;;;;;8.30;5.63;;;;;;;11.97;68.05;100770.41;4905747;28;99489;-79
2021/11/20 04:45:19;;;;;;;8.30;5.47;;;;;;;11.97;68.63;100759.88;4953943;28;97308;-79
2021/11/20 04:47:45;;;;;;;9.73;5.43;;;;;;;11.94;67.95;100759.97;4954757;28;96550;-79
2021/11/20 04:50:18;;;;;;;9.90;5.72;;;;;;;11.92;68.61;100770.53;4938842;28;96678;-78
2021/11/20 04:52:43;;;;;;;13.02;6.93;;;;;;;11.91;68.55;100760.06;4954370;28;100239;-78
2021/11/20 04:55:11;;;;;;;8.52;6.15;;;;;;;11.97;68.75;100763.34;4954584;28;99644;-78
2021/11/20 04:57:40;;;;;;;8.20;5.72;;;;;;;11.94;68.37;100760.81;4938775;28;96563;-78
2021/11/20 05:00:38;;;;;;;11.05;6.03;;;;;;;11.96;68.35;100769.53;4906123;28;96900;-79
2021/11/20 05:03:07;;;;;;;11.48;6.03;;;;;;;11.94;68.50;100778.38;4951340;28;97994;-78
2021/11/20 05:05:39;;;;;;;10.80;6.30;;;;;;;11.97;68.51;100784.41;4923272;28;100233;-78
2021/11/20 05:08:07;;;;;;;17.58;6.47;;;;;;;11.89;69.05;100777.66;4906966;28;96542;-79
2021/11/20 05:10:34;;;;;;;11.20;6.78;;;;;;;11.96;68.88;100782.69;4954767;28;96813;-78
2021/11/20 05:13:00;;;;;;;12.73;5.70;;;;;;;11.96;68.73;100787.09;4937837;28;97406;-78
2021/11/20 05:15:29;;;;;;;13.43;5.85;;;;;;;11.93;69.28;100779.31;4922266;28;99665;-79
2021/11/20 05:17:55;;;;;;;13.30;6.32;;;;;;;11.94;68.74;100787.13;4954676;28;96677;-78
2021/11/20 05:20:37;;;;;;;;;;;;;;;11.91;69.36;100792.50;4925025;28;96850;-78
2021/11/20 05:23:04;;;;;;;11.50;6.50;;;;;;;11.92;69.22;100790.72;4954013;28;99424;-78
2021/11/20 05:25:30;;;;;;;13.98;6.57;;;;;;;11.98;69.07;100794.03;4937971;28;99813;-79
2021/11/20 05:27:56;;;;;;;10.10;6.00;;;;;;;11.91;69.03;100776.72;4951869;28;96553;-77
2021/11/20 05:30:36;;;;;;;11.52;6.05;;;;;;;11.89;69.27;100794.31;4936094;28;96789;-78
2021/11/20 05:33:09;;;;;;;10.60;6.07;;;;;;;11.91;69.77;100789.88;4935346;28;100317;-79
2021/11/20 05:35:36;;;;;;;10.23;6.57;;;;;;;11.85;70.06;100792.69;4951624;28;100074;-78
2021/11/20 05:38:03;;;;;;;10.70;6.38;;;;;;;11.90;70.02;100795.19;4919053;28;96592;-79
2021/11/20 05:40:29;;;;;;;12.93;6.50;;;;;;;11.90;69.72;100796.06;4935865;28;96760;-79
2021/11/20 05:42:59;;;;;;;13.80;6.75;;;;;;;11.94;69.79;100794.19;4935049;28;100721;-78
2021/11/20 05:45:30;;;;;;;9.50;5.60;;;;;;;11.88;70.04;100792.59;4919411;28;99541;-78
2021/11/20 05:47:56;;;;;;;8.70;5.85;;;;;;;11.90;70.36;100793.41;4903364;28;96432;-79
2021/11/20 05:50:23;;;;;;;10.23;5.43;;;;;;;11.89;70.38;100799.56;4935383;28;96925;-78
2021/11/20 05:52:51;;;;;;;11.95;5.32;;;;;;;11.84;70.75;100796.22;4918578;28;99999;-79
2021/11/20 05:55:19;;;;;;;11.23;6.00;;;;;;;11.86;71.00;100797.03;4935349;28;100465;-79
2021/11/20 05:57:45;;;;;;;11.30;6.30;;;;;;;11.84;71.01;100790.97;4951477;28;96500;-78
2021/11/20 06:00:21;;;;;;;9.30;5.40;;;;;;;11.79;71.07;100801.59;4935162;28;97769;-78
2021/11/20 06:02:50;;;;;;;11.45;5.63;;;;;;;11.85;71.33;100803.22;4931661;28;97380;-78
2021/11/20 06:05:17;;;;;;;13.75;6.80;;;;;;;11.85;71.16;100802.34;4903056;28;99637;-78
2021/11/20 06:07:43;;;;;;;9.13;5.50;;;;;;;11.83;71.39;100804.13;4918772;28;96647;-78
2021/11/20 06:10:09;;;;;;;9.18;6.18;;;;;;;11.77;71.57;100808.69;4951296;28;96848;-79
2021/11/20 06:12:35;;;;;;;10.13;6.15;;;;;;;11.81;71.46;100817.34;4918688;28;100549;-78
2021/11/20 06:15:05;;;;;;;8.40;6.07;;;;;;;11.79;71.49;100822.66;4935031;28;97435;-78
2021/11/20 06:17:31;;;;;;;8.63;5.97;;;;;;;11.78;71.76;100830.59;4934950;28;96679;-79
2021/11/20 06:19:57;;;;;;;11.50;6.72;;;;;;;11.73;72.04;100832.50;4935449;28;96689;-78
2021/11/20 06:22:24;;;;;;;9.10;6.10;;;;;;;11.75;72.12;100838.56;4934764;28;97360;-78
2021/11/20 06:24:53;;;;;;;8.57;6.10;;;;;;;11.80;71.90;100841.91;4934211;28;99542;-78
2021/11/20 06:27:19;;;;;;;9.77;5.75;;;;;;;11.73;72.38;100835.13;4933774;28;96654;-79
2021/11/20 06:29:48;;;;;;;10.65;6.32;;;;;;;11.77;72.25;100829.72;4950614;28;96728;-78
2021/11/20 06:32:14;;;;;;;11.10;6.38;;;;;;;11.77;72.53;100836.75;4934572;28;97583;-79
2021/11/20 06:34:46;;;;;;;8.77;6.10;;;;;;;11.69;72.80;100833.50;4949706;28;100182;-79
2021/11/20 06:37:39;;;;;;;;;;;;;;;11.69;72.77;100839.63;4947904;28;96593;-78
2021/11/20 06:40:13;;;;;;;11.40;5.75;;;;;;;11.69;72.55;100850.16;4950472;28;96881;-78
2021/11/20 06:42:40;;;;;;;7.57;6.43;;;;;;;11.69;72.92;100850.16;4933969;28;100294;-78
2021/11/20 06:45:07;;;;;;;6.30;5.18;;;;;;;11.67;73.00;100853.75;4934459;28;100691;-77
2021/11/20 06:47:33;;;;;;;7.65;5.60;;;;;;;11.71;72.77;100847.47;4918290;28;96725;-79
2021/11/20 06:50:00;;;;;;;6.45;5.05;;;;;;;11.71;73.25;100856.22;4950453;28;96842;-78
2021/11/20 06:52:30;;;;;;;7.70;5.90;;;;;;;11.70;73.11;100856.28;4933420;28;98222;-78
2021/11/20 06:55:15;;;;;;;6.50;5.38;;;;;;;11.67;73.04;100856.38;4917710;28;96746;-78
2021/11/20 07:00:57;;;;;;;7.78;5.57;;;;;;;11.73;72.84;100861.44;4950435;28;96796;-78
2021/11/20 07:03:33;;;;;;;10.48;6.10;;;;;;;11.74;73.32;100865.78;4948942;28;100728;-78
2021/11/20 07:06:18;;;;;;;8.63;6.00;;;;;;;11.72;72.96;100868.47;4904282;28;100344;-79
2021/11/20 07:08:45;;;;;;;10.00;6.55;;;;;;;11.64;73.45;100869.59;4917247;28;96636;-78
2021/11/20 07:11:11;;;;;;;9.10;5.82;;;;;;;11.67;73.51;100873.00;4950361;28;97019;-78
2021/11/20 07:13:38;;;;;;;7.72;6.45;;;;;;;11.70;73.48;100875.53;4933484;28;97825;-78
2021/11/20 07:16:05;;;;;;;8.82;6.38;;;;;;;11.68;73.20;100879.97;4917571;28;99711;-78
2021/11/20 07:18:32;;;;;;;9.02;6.22;;;;;;;11.73;73.30;100887.75;4917803;28;96631;-79
2021/11/20 07:21:17;;;;;;;7.07;5.60;;;;;;;11.74;73.32;100886.81;4931631;28;96616;-78
2021/11/20 07:23:59;;;;;;;9.18;6.93;;;;;;;11.72;73.43;100886.88;4919166;28;100715;-78
2021/11/20 07:26:26;;;;;;;9.48;6.20;;;;;;;11.73;73.02;100879.84;4901491;28;100544;-79
2021/11/20 07:28:53;;;;;;;11.20;6.57;;;;;;;11.73;73.10;100885.09;4917630;28;96593;-79
2021/11/20 07:31:20;;;;;;;7.30;5.80;;;;;;;11.74;73.45;100882.41;4933763;28;96855;-78
2021/11/20 07:33:46;;;;;;;7.63;5.70;;;;;;;11.70;73.67;100882.56;4917186;28;101189;-78
2021/11/20 07:36:12;;;;;;;6.65;5.95;;;;;;;11.68;73.68;100876.50;4933555;28;100095;-79
2021/11/20 07:38:44;;;;;;;10.15;6.25;;;;;;;11.76;73.55;100877.13;4933682;28;96597;-79
2021/11/20 07:41:11;;;;;;;8.90;7.40;;;;;;;11.71;73.55;100887.78;4917776;28;96573;-78
2021/11/20 07:43:38;;;;;;;9.27;6.38;;;;;;;11.70;73.44;100880.78;4932531;28;100318;-77
2021/11/20 07:46:25;;;;;;;8.57;6.53;;;;;;;11.68;73.83;100890.50;4946613;28;100403;-78
2021/11/20 07:48:52;;;;;;;8.40;6.72;;;;;;;11.75;73.40;100878.00;4917658;28;96662;-78
2021/11/20 07:51:19;;;;;;;8.63;6.82;;;;;;;11.72;73.94;100888.63;4949467;28;96897;-78
2021/11/20 07:53:48;;;;;;;8.90;6.55;;;;;;;11.69;73.77;100884.34;4949033;28;97410;-78
2021/11/20 07:56:17;;;;;;;10.13;6.45;;;;;;;11.72;73.78;100889.50;4932723;28;99727;-78
2021/11/20 07:58:46;;;;;;;9.82;7.10;;;;;;;11.77;73.87;100874.44;4917091;28;96511;-78
2021/11/20 08:01:13;;;;;;;8.40;6.13;;;;;;;11.71;74.13;100877.25;4917678;28;97014;-79
2021/11/20 08:03:42;;;;;;;9.55;7.05;;;;;;;11.72;73.78;100876.38;4901588;28;100110;-78
2021/11/20 08:06:43;;;;;;;8.60;6.67;;;;;;;11.77;73.55;100878.84;4929291;28;97564;-79
2021/11/20 08:09:34;;;;;;;8.02;6.57;;;;;;;11.79;73.90;100879.66;4932614;28;96810;-78
2021/11/20 08:12:09;;;;;;;8.18;6.30;;;;;;;11.76;74.04;100883.25;4948223;28;96840;-79
2021/11/20 08:15:06;;;;;;;7.60;5.72;;;;;;;11.79;74.05;100877.88;4929625;28;99018;-76
2021/11/20 08:17:55;;;;;;;6.50;5.53;;;;;;;11.81;73.92;100883.13;4892521;28;97181;-78
2021/11/20 08:20:38;;;;;;;7.35;6.35;;;;;;;11.76;73.70;100877.97;4935377;28;96648;-78
2021/11/20 08:23:14;;;;;;;7.47;5.83;;;;;;;11.79;73.60;100888.41;4921769;28;96796;-78
2021/11/20 08:25:45;;;;;;;6.78;5.55;;;;;;;11.79;73.70;100891.03;4919911;28;99506;-77
2021/11/20 08:28:17;;;;;;;7.20;5.85;;;;;;;11.83;74.06;100885.69;4920148;28;100306;-77
2021/11/20 08:30:44;;;;;;;9.40;5.18;;;;;;;11.84;73.34;100880.38;4936393;28;96685;-78
2021/11/20 08:33:11;;;;;;;7.70;5.60;;;;;;;11.96;73.45;100879.19;4952339;28;96858;-77
2021/11/20 08:35:45;;;;;;;8.88;5.65;;;;;;;11.89;73.60;100878.50;4935372;28;100450;-78
2021/11/20 08:38:28;;;;;;;8.80;5.63;;;;;;;11.99;72.70;100879.09;4922301;28;99105;-78
2021/11/20 08:40:58;;;;;;;8.00;5.57;;;;;;;11.98;72.81;100878.22;4936428;28;96503;-77
2021/11/20 08:43:29;;;;;;;5.85;4.70;;;;;;;11.95;72.73;100883.56;4936028;28;96689;-78
2021/11/20 08:46:23;;;;;;;5.82;4.20;;;;;;;12.04;72.52;100887.69;4924316;28;98570;-78
2021/11/20 08:48:49;;;;;;;5.15;4.45;;;;;;;12.06;72.53;100890.28;4951486;28;99875;-79
2021/11/20 08:51:18;;;;;;;6.38;4.38;;;;;;;12.11;71.88;100885.75;4919456;28;96614;-78
2021/11/20 08:53:45;;;;;;;5.05;4.00;;;;;;;12.16;72.32;100882.06;4920257;28;96840;-77
2021/11/20 08:56:12;;;;;;;5.65;3.97;;;;;;;12.16;71.98;100876.78;4951806;28;100014;-78
2021/11/20 08:58:42;;;;;;;4.97;3.90;;;;;;;12.14;72.02;100875.97;4950929;28;100359;-78
2021/11/20 09:01:23;;;;;;;5.22;3.97;;;;;;;12.15;71.95;100876.81;4935019;28;96618;-78
2021/11/20 09:04:11;;;;;;;6.10;4.20;;;;;;;12.19;72.14;100871.44;4951299;28;96805;-78
2021/11/20 09:06:48;;;;;;;4.65;3.75;;;;;;;12.22;71.77;100886.25;4919244;28;100490;-78
2021/11/20 09:09:26;;;;;;;7.22;4.05;;;;;;;12.15;72.23;100882.09;4919261;28;99979;-78
2021/11/20 09:12:09;;;;;;;4.55;3.50;;;;;;;12.19;72.17;100879.31;4952091;28;96773;-77
2021/11/20 09:15:10;;;;;;;6.07;4.40;;;;;;;12.18;71.90;100871.47;4919716;28;96782;-77
2021/11/20 09:17:41;;;;;;;5.38;3.65;;;;;;;12.21;72.43;100874.84;4918761;28;100778;-77
2021/11/20 09:20:10;;;;;;;4.95;3.65;;;;;;;12.13;71.79;100874.25;4919725;28;98623;-77
2021/11/20 09:22:37;;;;;;;4.85;4.03;;;;;;;12.26;71.86;100868.59;4919251;28;96577;-77
2021/11/20 09:25:13;;;;;;;6.50;3.97;;;;;;;12.22;72.30;100873.09;4950197;28;96840;-77
2021/11/20 09:27:44;;;;;;;;;;;;;;;12.20;71.71;100867.03;4919579;28;100845;-77
2021/11/20 09:30:33;;;;;;;8.20;4.47;;;;;;;12.22;71.53;100858.16;4950692;28;99624;-77
2021/11/20 09:32:59;;;;;;;5.82;4.30;;;;;;;12.29;71.49;100861.44;4935317;28;96935;-77
2021/11/20 09:35:33;;;;;;;6.30;4.20;;;;;;;12.29;71.64;100857.97;4950800;28;96764;-77
2021/11/20 09:38:23;;;;;;;7.35;4.38;;;;;;;12.23;71.60;100862.50;4921760;28;100525;-76
2021/11/20 09:40:56;;;;;;;5.32;4.28;;;;;;;12.33;71.88;100856.94;4950967;28;100242;-76
2021/11/20 09:43:26;;;;;;;4.72;3.95;;;;;;;12.31;71.48;100858.78;4919178;28;96742;-77
2021/11/20 09:46:02;;;;;;;4.72;3.80;;;;;;;12.32;71.61;100856.09;4919373;28;96847;-77
2021/11/20 09:48:38;;;;;;;8.02;4.28;;;;;;;12.32;71.78;100858.72;4934255;28;99538;-77
2021/11/20 09:51:27;;;;;;;4.68;3.45;;;;;;;12.24;72.04;100855.47;4904130;28;98515;-76
2021/11/20 09:53:57;;;;;;;7.05;4.50;;;;;;;12.18;72.18;100851.25;4950055;28;96485;-77
2021/11/20 09:56:29;;;;;;;5.28;4.22;;;;;;;12.23;72.12;100853.75;4951445;28;96801;-76
2021/11/20 09:59:05;;;;;;;6.68;4.68;;;;;;;12.20;72.29;100851.22;4917886;28;100788;-76
2021/11/20 10:01:49;;;;;;;5.85;4.70;;;;;;;12.23;72.08;100851.13;4918794;28;97679;-77
2021/11/20 10:04:46;;;;;;;6.15;4.68;;;;;;;12.25;72.48;100859.84;4918424;28;96584;-76
2021/11/20 10:07:25;;;;;;;6.03;5.25;;;;;;;12.21;72.28;100845.03;4934681;28;96530;-77
2021/11/20 10:09:54;;;;;;;7.70;5.13;;;;;;;12.20;72.21;100841.56;4934545;28;97394;-76
2021/11/20 10:12:36;;;;;;;7.47;5.18;;;;;;;12.14;72.04;100841.75;4934652;28;100788;-76
2021/11/20 10:15:13;;;;;;;7.13;5.10;;;;;;;12.19;72.14;100837.22;4918971;28;96861;-76
2021/11/20 10:17:51;;;;;;;6.00;5.03;;;;;;;12.22;72.01;100823.09;4935724;28;96745;-76
2021/11/20 10:20:33;;;;;;;6.22;4.57;;;;;;;12.23;71.42;100816.91;4950369;28;98252;-76
2021/11/20 10:23:11;;;;;;;5.35;4.50;;;;;;;12.19;71.60;100820.56;4950442;28;100070;-76
2021/11/20 10:25:58;;;;;;;7.00;4.78;;;;;;;12.20;70.79;100819.66;4951260;28;96501;-78
2021/11/20 10:28:36;;;;;;;5.35;4.15;;;;;;;12.14;71.00;100817.22;4936261;28;96486;-77
2021/11/20 10:31:04;;;;;;;5.18;4.25;;;;;;;12.21;71.34;100814.31;4935854;28;97672;-77
2021/11/20 10:33:35;;;;;;;5.78;4.47;;;;;;;12.21;71.02;100816.94;4934088;28;100418;-76
2021/11/20 10:36:04;;;;;;;6.40;4.75;;;;;;;12.18;70.86;100809.16;4934931;28;96557;-77
2021/11/20 10:38:36;;;;;;;7.72;5.35;;;;;;;12.18;70.71;100813.56;4951130;28;96838;-77
2021/11/20 10:41:24;;;;;;;8.67;5.27;;;;;;;12.19;70.83;100807.41;4934293;28;97528;-77
2021/11/20 10:43:53;;;;;;;7.40;4.90;;;;;;;12.23;70.42;100803.75;4933682;28;97285;-77
2021/11/20 10:46:33;;;;;;;6.28;4.78;;;;;;;12.22;70.21;100808.16;4934058;28;96848;-77
2021/11/20 10:49:09;;;;;;;7.97;4.80;;;;;;;12.18;70.45;100801.25;4950785;28;96665;-77
2021/11/20 10:51:43;;;;;;;8.50;5.38;;;;;;;12.18;70.72;100806.53;4935376;28;97942;-75
2021/11/20 10:54:37;;;;;;;7.07;5.45;;;;;;;12.17;70.45;100796.91;4950371;28;97516;-77
2021/11/20 10:57:12;;;;;;;7.03;5.50;;;;;;;12.26;70.38;100798.38;4950481;28;96659;-77
2021/11/20 10:59:51;;;;;;;7.15;5.47;;;;;;;12.26;69.81;100790.47;4933454;28;96944;-76
2021/11/20 11:02:44;;;;;;;8.15;5.10;;;;;;;12.26;70.07;100781.72;4949905;28;98535;-77
2021/11/20 11:05:16;;;;;;;;;;;;;;;12.25;70.23;100783.50;4950785;28;96636;-77
2021/11/20 11:07:55;;;;;;;6.30;5.15;;;;;;;12.32;69.89;100771.00;4950307;28;96700;-78
2021/11/20 11:10:30;;;;;;;9.32;6.18;;;;;;;12.26;69.73;100768.56;4950426;28;96819;-77
2021/11/20 11:13:13;;;;;;;7.65;5.45;;;;;;;12.30;70.10;100762.28;4933550;28;98257;-76
2021/11/20 11:16:05;;;;;;;6.28;4.43;;;;;;;12.27;69.75;100765.00;4933804;28;100329;-78
2021/11/20 11:18:34;;;;;;;7.90;5.18;;;;;;;12.29;69.41;100765.84;4934257;28;96588;-79
2021/11/20 11:21:05;;;;;;;6.03;4.85;;;;;;;12.26;69.48;100765.94;4950106;28;96839;-78
2021/11/20 11:23:59;;;;;;;6.75;5.05;;;;;;;12.24;69.31;100761.56;4934902;28;97624;-77
2021/11/20 11:26:28;;;;;;;5.78;4.43;;;;;;;12.28;69.74;100757.09;4917566;28;97149;-77
2021/11/20 11:29:07;;;;;;;5.95;4.68;;;;;;;12.30;69.24;100754.38;4933559;28;96647;-77
2021/11/20 11:31:35;;;;;;;5.70;4.40;;;;;;;12.29;69.56;100752.69;4950288;28;96497;-77
2021/11/20 11:34:20;;;;;;;5.22;4.72;;;;;;;12.28;69.16;100741.28;4934617;28;97582;-76
2021/11/20 11:36:57;;;;;;;9.32;4.28;;;;;;;12.29;69.29;100744.78;4949682;28;97545;-76
2021/11/20 11:39:34;;;;;;;5.38;3.90;;;;;;;12.29;68.77;100740.38;4934407;28;96605;-77
2021/11/20 11:42:24;;;;;;;5.82;4.50;;;;;;;12.27;68.91;100738.69;4949696;28;96518;-77
2021/11/20 11:44:53;;;;;;;4.65;3.70;;;;;;;12.26;69.25;100734.34;4933033;28;100890;-77
2021/11/20 11:47:33;;;;;;;6.05;4.30;;;;;;;12.31;68.90;100732.44;4949049;28;98619;-77
2021/11/20 11:50:27;;;;;;;4.70;4.07;;;;;;;12.25;69.11;100733.50;4949745;28;96574;-77